sensor_id;sensor_type;location;lat;lon;timestamp;P1;durP1;ratioP1;P2;durP2;ratioP2
81679;SDS011;74989;52.210;5.148;2024-01-11T00:01:46;17.63;;;11.80;;
81679;SDS011;74989;52.210;5.148;2024-01-11T00:04:14;20.02;;;11.70;;
81679;SDS011;74989;52.210;5.148;2024-01-11T00:06:41;21.30;;;12.77;;
81679;SDS011;74989;52.210;5.148;2024-01-11T00:09:08;21.67;;;12.30;;
81679;SDS011;74989;52.210;5.148;2024-01-11T00:11:35;21.15;;;12.13;;
81679;SDS011;74989;52.210;5.148;2024-01-11T00:14:02;18.63;;;12.03;;
81679;SDS011;74989;52.210;5.148;2024-01-11T00:16:30;17.65;;;10.82;;
81679;SDS011;74989;52.210;5.148;2024-01-11T00:18:57;23.40;;;12.38;;
81679;SDS011;74989;52.210;5.148;2024-01-11T00:21:24;21.88;;;12.10;;
81679;SDS011;74989;52.210;5.148;2024-01-11T00:23:50;20.13;;;11.57;;
81679;SDS011;74989;52.210;5.148;2024-01-11T00:26:17;19.00;;;11.13;;
81679;SDS011;74989;52.210;5.148;2024-01-11T00:28:44;17.52;;;10.52;;
81679;SDS011;74989;52.210;5.148;2024-01-11T00:31:10;17.17;;;11.52;;
81679;SDS011;74989;52.210;5.148;2024-01-11T00:33:39;17.17;;;9.63;;
81679;SDS011;74989;52.210;5.148;2024-01-11T00:36:05;19.20;;;11.10;;
81679;SDS011;74989;52.210;5.148;2024-01-11T00:38:32;16.60;;;11.57;;
81679;SDS011;74989;52.210;5.148;2024-01-11T00:40:59;23.70;;;11.60;;
81679;SDS011;74989;52.210;5.148;2024-01-11T00:43:26;24.40;;;11.88;;
81679;SDS011;74989;52.210;5.148;2024-01-11T00:45:53;21.67;;;12.30;;
81679;SDS011;74989;52.210;5.148;2024-01-11T00:48:19;22.73;;;13.13;;
81679;SDS011;74989;52.210;5.148;2024-01-11T00:50:47;18.33;;;11.30;;
81679;SDS011;74989;52.210;5.148;2024-01-11T00:53:14;20.00;;;11.80;;
81679;SDS011;74989;52.210;5.148;2024-01-11T00:55:42;16.98;;;10.82;;
81679;SDS011;74989;52.210;5.148;2024-01-11T00:58:08;19.55;;;11.35;;
81679;SDS011;74989;52.210;5.148;2024-01-11T01:00:35;21.48;;;12.10;;
81679;SDS011;74989;52.210;5.148;2024-01-11T01:03:02;22.57;;;12.57;;
81679;SDS011;74989;52.210;5.148;2024-01-11T01:05:29;20.95;;;11.05;;
81679;SDS011;74989;52.210;5.148;2024-01-11T01:07:57;23.63;;;12.50;;
81679;SDS011;74989;52.210;5.148;2024-01-11T01:10:24;19.92;;;11.50;;
81679;SDS011;74989;52.210;5.148;2024-01-11T01:12:50;18.17;;;12.00;;
81679;SDS011;74989;52.210;5.148;2024-01-11T01:15:17;16.73;;;11.33;;
81679;SDS011;74989;52.210;5.148;2024-01-11T01:17:44;20.83;;;12.85;;
81679;SDS011;74989;52.210;5.148;2024-01-11T01:20:10;20.35;;;12.60;;
81679;SDS011;74989;52.210;5.148;2024-01-11T01:22:37;20.38;;;11.40;;
81679;SDS011;74989;52.210;5.148;2024-01-11T01:25:06;18.13;;;11.75;;
81679;SDS011;74989;52.210;5.148;2024-01-11T01:27:33;19.13;;;12.13;;
81679;SDS011;74989;52.210;5.148;2024-01-11T01:30:00;20.40;;;11.93;;
81679;SDS011;74989;52.210;5.148;2024-01-11T01:32:26;23.00;;;13.40;;
81679;SDS011;74989;52.210;5.148;2024-01-11T01:34:53;19.88;;;14.13;;
81679;SDS011;74989;52.210;5.148;2024-01-11T01:37:20;22.95;;;12.38;;
81679;SDS011;74989;52.210;5.148;2024-01-11T01:39:46;24.33;;;13.97;;
81679;SDS011;74989;52.210;5.148;2024-01-11T01:42:14;20.10;;;11.95;;
81679;SDS011;74989;52.210;5.148;2024-01-11T01:44:41;19.23;;;12.10;;
81679;SDS011;74989;52.210;5.148;2024-01-11T01:47:08;21.48;;;13.38;;
81679;SDS011;74989;52.210;5.148;2024-01-11T01:49:36;22.35;;;13.32;;
81679;SDS011;74989;52.210;5.148;2024-01-11T01:52:03;20.30;;;12.70;;
81679;SDS011;74989;52.210;5.148;2024-01-11T01:54:32;20.50;;;12.38;;
81679;SDS011;74989;52.210;5.148;2024-01-11T01:56:59;21.60;;;13.27;;
81679;SDS011;74989;52.210;5.148;2024-01-11T01:59:29;22.20;;;13.43;;
81679;SDS011;74989;52.210;5.148;2024-01-11T02:01:56;23.40;;;14.63;;
81679;SDS011;74989;52.210;5.148;2024-01-11T02:04:23;22.67;;;15.00;;
81679;SDS011;74989;52.210;5.148;2024-01-11T02:06:50;17.52;;;11.63;;
81679;SDS011;74989;52.210;5.148;2024-01-11T02:09:19;21.10;;;12.75;;
81679;SDS011;74989;52.210;5.148;2024-01-11T02:11:46;22.20;;;14.27;;
81679;SDS011;74989;52.210;5.148;2024-01-11T02:14:14;23.85;;;12.68;;
81679;SDS011;74989;52.210;5.148;2024-01-11T02:16:42;21.47;;;14.47;;
81679;SDS011;74989;52.210;5.148;2024-01-11T02:19:09;23.75;;;13.85;;
81679;SDS011;74989;52.210;5.148;2024-01-11T02:21:39;22.30;;;14.48;;
81679;SDS011;74989;52.210;5.148;2024-01-11T02:24:09;25.42;;;15.52;;
81679;SDS011;74989;52.210;5.148;2024-01-11T02:26:36;30.52;;;16.50;;
81679;SDS011;74989;52.210;5.148;2024-01-11T02:29:03;26.93;;;14.37;;
81679;SDS011;74989;52.210;5.148;2024-01-11T02:31:29;25.48;;;14.43;;
81679;SDS011;74989;52.210;5.148;2024-01-11T02:33:57;24.27;;;14.93;;
81679;SDS011;74989;52.210;5.148;2024-01-11T02:36:25;25.15;;;15.07;;
81679;SDS011;74989;52.210;5.148;2024-01-11T02:38:52;24.38;;;15.18;;
81679;SDS011;74989;52.210;5.148;2024-01-11T02:41:21;24.70;;;14.97;;
81679;SDS011;74989;52.210;5.148;2024-01-11T02:43:48;23.92;;;15.52;;
81679;SDS011;74989;52.210;5.148;2024-01-11T02:46:15;25.58;;;15.10;;
81679;SDS011;74989;52.210;5.148;2024-01-11T02:48:43;26.77;;;14.52;;
81679;SDS011;74989;52.210;5.148;2024-01-11T02:51:10;23.67;;;16.10;;
81679;SDS011;74989;52.210;5.148;2024-01-11T02:53:37;24.80;;;14.87;;
81679;SDS011;74989;52.210;5.148;2024-01-11T02:56:03;29.10;;;17.50;;
81679;SDS011;74989;52.210;5.148;2024-01-11T02:58:31;27.42;;;15.85;;
81679;SDS011;74989;52.210;5.148;2024-01-11T03:00:58;27.02;;;17.77;;
81679;SDS011;74989;52.210;5.148;2024-01-11T03:03:25;23.20;;;15.35;;
81679;SDS011;74989;52.210;5.148;2024-01-11T03:05:51;23.53;;;15.13;;
81679;SDS011;74989;52.210;5.148;2024-01-11T03:08:18;24.25;;;15.63;;
81679;SDS011;74989;52.210;5.148;2024-01-11T03:10:44;28.17;;;17.25;;
81679;SDS011;74989;52.210;5.148;2024-01-11T03:13:11;25.23;;;15.32;;
81679;SDS011;74989;52.210;5.148;2024-01-11T03:15:40;30.63;;;16.20;;
81679;SDS011;74989;52.210;5.148;2024-01-11T03:18:07;31.10;;;18.53;;
81679;SDS011;74989;52.210;5.148;2024-01-11T03:20:33;27.63;;;18.17;;
81679;SDS011;74989;52.210;5.148;2024-01-11T03:23:00;24.10;;;15.43;;
81679;SDS011;74989;52.210;5.148;2024-01-11T03:25:27;28.10;;;16.38;;
81679;SDS011;74989;52.210;5.148;2024-01-11T03:27:55;26.83;;;16.38;;
81679;SDS011;74989;52.210;5.148;2024-01-11T03:30:23;27.37;;;17.47;;
81679;SDS011;74989;52.210;5.148;2024-01-11T03:32:51;24.65;;;16.50;;
81679;SDS011;74989;52.210;5.148;2024-01-11T03:35:18;27.58;;;16.83;;
81679;SDS011;74989;52.210;5.148;2024-01-11T03:37:45;24.77;;;16.25;;
81679;SDS011;74989;52.210;5.148;2024-01-11T03:40:12;28.63;;;17.13;;
81679;SDS011;74989;52.210;5.148;2024-01-11T03:42:39;27.17;;;16.87;;
81679;SDS011;74989;52.210;5.148;2024-01-11T03:45:07;32.20;;;20.20;;
81679;SDS011;74989;52.210;5.148;2024-01-11T03:47:35;28.85;;;18.05;;
81679;SDS011;74989;52.210;5.148;2024-01-11T03:50:03;27.88;;;15.57;;
81679;SDS011;74989;52.210;5.148;2024-01-11T03:52:30;31.45;;;19.27;;
81679;SDS011;74989;52.210;5.148;2024-01-11T03:54:57;27.43;;;18.40;;
81679;SDS011;74989;52.210;5.148;2024-01-11T03:57:24;32.25;;;19.65;;
81679;SDS011;74989;52.210;5.148;2024-01-11T03:59:50;27.48;;;17.55;;
81679;SDS011;74989;52.210;5.148;2024-01-11T04:02:17;31.30;;;20.35;;
81679;SDS011;74989;52.210;5.148;2024-01-11T04:04:43;36.70;;;21.55;;
81679;SDS011;74989;52.210;5.148;2024-01-11T04:07:12;30.93;;;19.83;;
81679;SDS011;74989;52.210;5.148;2024-01-11T04:09:39;28.73;;;18.02;;
81679;SDS011;74989;52.210;5.148;2024-01-11T04:12:05;32.80;;;19.73;;
81679;SDS011;74989;52.210;5.148;2024-01-11T04:14:32;36.22;;;22.30;;
81679;SDS011;74989;52.210;5.148;2024-01-11T04:16:59;35.83;;;22.55;;
81679;SDS011;74989;52.210;5.148;2024-01-11T04:19:26;32.20;;;21.50;;
81679;SDS011;74989;52.210;5.148;2024-01-11T04:21:52;30.92;;;19.23;;
81679;SDS011;74989;52.210;5.148;2024-01-11T04:24:20;30.00;;;19.05;;
81679;SDS011;74989;52.210;5.148;2024-01-11T04:26:47;29.60;;;19.73;;
81679;SDS011;74989;52.210;5.148;2024-01-11T04:29:14;30.10;;;19.80;;
81679;SDS011;74989;52.210;5.148;2024-01-11T04:31:40;34.57;;;20.97;;
81679;SDS011;74989;52.210;5.148;2024-01-11T04:34:07;34.58;;;21.67;;
81679;SDS011;74989;52.210;5.148;2024-01-11T04:36:36;36.63;;;21.63;;
81679;SDS011;74989;52.210;5.148;2024-01-11T04:39:03;38.88;;;22.25;;
81679;SDS011;74989;52.210;5.148;2024-01-11T04:41:33;35.50;;;22.08;;
81679;SDS011;74989;52.210;5.148;2024-01-11T04:44:01;36.90;;;23.23;;
81679;SDS011;74989;52.210;5.148;2024-01-11T04:46:28;32.28;;;19.77;;
81679;SDS011;74989;52.210;5.148;2024-01-11T04:48:55;34.67;;;22.13;;
81679;SDS011;74989;52.210;5.148;2024-01-11T04:51:21;33.25;;;21.75;;
81679;SDS011;74989;52.210;5.148;2024-01-11T04:53:48;34.78;;;21.25;;
81679;SDS011;74989;52.210;5.148;2024-01-11T04:56:15;33.30;;;21.73;;
81679;SDS011;74989;52.210;5.148;2024-01-11T04:58:44;33.80;;;21.33;;
81679;SDS011;74989;52.210;5.148;2024-01-11T05:01:11;35.88;;;23.20;;
81679;SDS011;74989;52.210;5.148;2024-01-11T05:03:39;36.22;;;21.70;;
81679;SDS011;74989;52.210;5.148;2024-01-11T05:06:06;35.28;;;23.42;;
81679;SDS011;74989;52.210;5.148;2024-01-11T05:08:32;38.63;;;23.83;;
81679;SDS011;74989;52.210;5.148;2024-01-11T05:10:59;30.50;;;20.30;;
81679;SDS011;74989;52.210;5.148;2024-01-11T05:13:26;32.60;;;20.85;;
81679;SDS011;74989;52.210;5.148;2024-01-11T05:15:53;32.03;;;21.47;;
81679;SDS011;74989;52.210;5.148;2024-01-11T05:18:20;32.42;;;21.35;;
81679;SDS011;74989;52.210;5.148;2024-01-11T05:20:46;34.58;;;20.88;;
81679;SDS011;74989;52.210;5.148;2024-01-11T05:23:13;35.55;;;21.92;;
81679;SDS011;74989;52.210;5.148;2024-01-11T05:25:39;37.03;;;22.30;;
81679;SDS011;74989;52.210;5.148;2024-01-11T05:28:06;35.23;;;22.00;;
81679;SDS011;74989;52.210;5.148;2024-01-11T05:30:33;34.65;;;23.33;;
81679;SDS011;74989;52.210;5.148;2024-01-11T05:33:01;34.50;;;21.95;;
81679;SDS011;74989;52.210;5.148;2024-01-11T05:35:28;30.27;;;19.55;;
81679;SDS011;74989;52.210;5.148;2024-01-11T05:37:54;41.13;;;24.63;;
81679;SDS011;74989;52.210;5.148;2024-01-11T05:40:21;40.63;;;25.00;;
81679;SDS011;74989;52.210;5.148;2024-01-11T05:42:48;37.63;;;24.27;;
81679;SDS011;74989;52.210;5.148;2024-01-11T05:45:14;32.45;;;21.08;;
81679;SDS011;74989;52.210;5.148;2024-01-11T05:47:42;38.55;;;22.80;;
81679;SDS011;74989;52.210;5.148;2024-01-11T05:50:10;42.83;;;26.52;;
81679;SDS011;74989;52.210;5.148;2024-01-11T05:52:37;37.03;;;23.63;;
81679;SDS011;74989;52.210;5.148;2024-01-11T05:55:04;39.42;;;23.23;;
81679;SDS011;74989;52.210;5.148;2024-01-11T05:57:31;33.90;;;21.50;;
81679;SDS011;74989;52.210;5.148;2024-01-11T05:59:58;33.97;;;19.23;;
81679;SDS011;74989;52.210;5.148;2024-01-11T06:02:24;39.33;;;24.27;;
81679;SDS011;74989;52.210;5.148;2024-01-11T06:04:51;42.07;;;25.57;;
81679;SDS011;74989;52.210;5.148;2024-01-11T06:07:19;37.17;;;23.02;;
81679;SDS011;74989;52.210;5.148;2024-01-11T06:09:46;37.22;;;24.15;;
81679;SDS011;74989;52.210;5.148;2024-01-11T06:12:12;34.53;;;20.85;;
81679;SDS011;74989;52.210;5.148;2024-01-11T06:14:39;35.33;;;24.00;;
81679;SDS011;74989;52.210;5.148;2024-01-11T06:17:06;32.10;;;20.03;;
81679;SDS011;74989;52.210;5.148;2024-01-11T06:19:36;38.90;;;24.15;;
81679;SDS011;74989;52.210;5.148;2024-01-11T06:22:03;37.58;;;21.80;;
81679;SDS011;74989;52.210;5.148;2024-01-11T06:24:31;36.33;;;22.05;;
81679;SDS011;74989;52.210;5.148;2024-01-11T06:26:58;36.00;;;21.75;;
81679;SDS011;74989;52.210;5.148;2024-01-11T06:29:25;40.03;;;25.23;;
81679;SDS011;74989;52.210;5.148;2024-01-11T06:31:52;43.58;;;25.95;;
81679;SDS011;74989;52.210;5.148;2024-01-11T06:34:18;30.42;;;20.25;;
81679;SDS011;74989;52.210;5.148;2024-01-11T06:36:45;36.63;;;23.10;;
81679;SDS011;74989;52.210;5.148;2024-01-11T06:39:12;35.58;;;22.48;;
81679;SDS011;74989;52.210;5.148;2024-01-11T06:41:40;35.30;;;22.20;;
81679;SDS011;74989;52.210;5.148;2024-01-11T06:44:07;40.90;;;24.23;;
81679;SDS011;74989;52.210;5.148;2024-01-11T06:46:33;35.10;;;21.92;;
81679;SDS011;74989;52.210;5.148;2024-01-11T06:49:01;33.55;;;21.35;;
81679;SDS011;74989;52.210;5.148;2024-01-11T06:51:28;42.55;;;25.00;;
81679;SDS011;74989;52.210;5.148;2024-01-11T06:53:54;37.20;;;23.77;;
81679;SDS011;74989;52.210;5.148;2024-01-11T06:56:21;32.58;;;19.63;;
81679;SDS011;74989;52.210;5.148;2024-01-11T06:58:49;39.05;;;22.98;;
81679;SDS011;74989;52.210;5.148;2024-01-11T07:01:16;33.17;;;20.58;;
81679;SDS011;74989;52.210;5.148;2024-01-11T07:03:43;39.53;;;24.17;;
81679;SDS011;74989;52.210;5.148;2024-01-11T07:06:10;38.60;;;23.70;;
81679;SDS011;74989;52.210;5.148;2024-01-11T07:08:37;40.75;;;24.98;;
81679;SDS011;74989;52.210;5.148;2024-01-11T07:11:04;40.72;;;23.95;;
81679;SDS011;74989;52.210;5.148;2024-01-11T07:13:30;39.17;;;25.67;;
81679;SDS011;74989;52.210;5.148;2024-01-11T07:15:59;46.50;;;27.98;;
81679;SDS011;74989;52.210;5.148;2024-01-11T07:18:28;45.20;;;25.43;;
81679;SDS011;74989;52.210;5.148;2024-01-11T07:20:56;42.50;;;26.40;;
81679;SDS011;74989;52.210;5.148;2024-01-11T07:23:23;40.40;;;25.20;;
81679;SDS011;74989;52.210;5.148;2024-01-11T07:25:50;45.90;;;27.40;;
81679;SDS011;74989;52.210;5.148;2024-01-11T07:28:16;44.63;;;27.02;;
81679;SDS011;74989;52.210;5.148;2024-01-11T07:30:44;49.37;;;29.30;;
81679;SDS011;74989;52.210;5.148;2024-01-11T07:33:13;51.10;;;28.60;;
81679;SDS011;74989;52.210;5.148;2024-01-11T07:35:39;37.17;;;21.95;;
81679;SDS011;74989;52.210;5.148;2024-01-11T07:38:06;40.13;;;25.92;;
81679;SDS011;74989;52.210;5.148;2024-01-11T07:40:33;43.25;;;27.40;;
81679;SDS011;74989;52.210;5.148;2024-01-11T07:42:59;39.03;;;22.43;;
81679;SDS011;74989;52.210;5.148;2024-01-11T07:45:26;37.97;;;23.85;;
81679;SDS011;74989;52.210;5.148;2024-01-11T07:47:53;43.78;;;25.08;;
81679;SDS011;74989;52.210;5.148;2024-01-11T07:50:21;43.13;;;25.00;;
81679;SDS011;74989;52.210;5.148;2024-01-11T07:52:47;48.38;;;27.52;;
81679;SDS011;74989;52.210;5.148;2024-01-11T07:55:14;43.83;;;27.07;;
81679;SDS011;74989;52.210;5.148;2024-01-11T07:57:42;43.15;;;27.13;;
81679;SDS011;74989;52.210;5.148;2024-01-11T08:00:08;45.95;;;27.38;;
81679;SDS011;74989;52.210;5.148;2024-01-11T08:02:38;36.80;;;23.95;;
81679;SDS011;74989;52.210;5.148;2024-01-11T08:05:05;44.65;;;25.70;;
81679;SDS011;74989;52.210;5.148;2024-01-11T08:07:34;39.57;;;26.03;;
81679;SDS011;74989;52.210;5.148;2024-01-11T08:10:01;44.85;;;27.80;;
81679;SDS011;74989;52.210;5.148;2024-01-11T08:12:29;50.70;;;28.15;;
81679;SDS011;74989;52.210;5.148;2024-01-11T08:14:55;44.13;;;29.27;;
81679;SDS011;74989;52.210;5.148;2024-01-11T08:17:22;40.00;;;24.73;;
81679;SDS011;74989;52.210;5.148;2024-01-11T08:19:49;45.60;;;26.70;;
81679;SDS011;74989;52.210;5.148;2024-01-11T08:22:16;46.28;;;28.20;;
81679;SDS011;74989;52.210;5.148;2024-01-11T08:24:44;47.30;;;27.98;;
81679;SDS011;74989;52.210;5.148;2024-01-11T08:27:11;45.25;;;28.02;;
81679;SDS011;74989;52.210;5.148;2024-01-11T08:29:37;45.10;;;27.27;;
81679;SDS011;74989;52.210;5.148;2024-01-11T08:32:04;40.77;;;25.43;;
81679;SDS011;74989;52.210;5.148;2024-01-11T08:34:32;44.38;;;25.27;;
81679;SDS011;74989;52.210;5.148;2024-01-11T08:36:58;41.45;;;24.30;;
81679;SDS011;74989;52.210;5.148;2024-01-11T08:39:25;48.38;;;27.77;;
81679;SDS011;74989;52.210;5.148;2024-01-11T08:41:53;39.13;;;25.52;;
81679;SDS011;74989;52.210;5.148;2024-01-11T08:44:20;41.43;;;26.57;;
81679;SDS011;74989;52.210;5.148;2024-01-11T08:46:46;34.38;;;22.30;;
81679;SDS011;74989;52.210;5.148;2024-01-11T08:49:14;33.20;;;20.80;;
81679;SDS011;74989;52.210;5.148;2024-01-11T08:51:40;43.88;;;26.00;;
81679;SDS011;74989;52.210;5.148;2024-01-11T08:54:07;37.47;;;23.85;;
81679;SDS011;74989;52.210;5.148;2024-01-11T08:56:34;40.43;;;24.23;;
81679;SDS011;74989;52.210;5.148;2024-01-11T08:59:03;37.15;;;22.40;;
81679;SDS011;74989;52.210;5.148;2024-01-11T09:01:29;39.10;;;23.90;;
81679;SDS011;74989;52.210;5.148;2024-01-11T09:03:57;41.60;;;24.20;;
81679;SDS011;74989;52.210;5.148;2024-01-11T09:06:24;38.05;;;23.05;;
81679;SDS011;74989;52.210;5.148;2024-01-11T09:08:51;41.50;;;23.00;;
81679;SDS011;74989;52.210;5.148;2024-01-11T09:11:17;30.90;;;19.85;;
81679;SDS011;74989;52.210;5.148;2024-01-11T09:13:44;37.03;;;21.17;;
81679;SDS011;74989;52.210;5.148;2024-01-11T09:16:15;31.65;;;18.65;;
81679;SDS011;74989;52.210;5.148;2024-01-11T09:18:42;29.58;;;18.67;;
81679;SDS011;74989;52.210;5.148;2024-01-11T09:21:09;32.13;;;20.30;;
81679;SDS011;74989;52.210;5.148;2024-01-11T09:23:37;27.35;;;18.55;;
81679;SDS011;74989;52.210;5.148;2024-01-11T09:26:04;28.08;;;19.40;;
81679;SDS011;74989;52.210;5.148;2024-01-11T09:28:31;29.63;;;20.13;;
81679;SDS011;74989;52.210;5.148;2024-01-11T09:30:57;29.70;;;18.30;;
81679;SDS011;74989;52.210;5.148;2024-01-11T09:33:26;30.73;;;19.20;;
81679;SDS011;74989;52.210;5.148;2024-01-11T09:35:53;28.45;;;19.05;;
81679;SDS011;74989;52.210;5.148;2024-01-11T09:38:21;33.25;;;19.52;;
81679;SDS011;74989;52.210;5.148;2024-01-11T09:40:48;30.02;;;19.55;;
81679;SDS011;74989;52.210;5.148;2024-01-11T09:43:23;37.75;;;21.70;;
81679;SDS011;74989;52.210;5.148;2024-01-11T09:45:51;29.63;;;19.70;;
81679;SDS011;74989;52.210;5.148;2024-01-11T09:48:19;34.47;;;18.88;;
81679;SDS011;74989;52.210;5.148;2024-01-11T09:50:49;29.80;;;18.20;;
81679;SDS011;74989;52.210;5.148;2024-01-11T09:53:18;28.30;;;17.67;;
81679;SDS011;74989;52.210;5.148;2024-01-11T09:55:48;25.13;;;15.38;;
81679;SDS011;74989;52.210;5.148;2024-01-11T09:58:17;29.93;;;19.13;;
81679;SDS011;74989;52.210;5.148;2024-01-11T10:00:44;28.65;;;18.25;;
81679;SDS011;74989;52.210;5.148;2024-01-11T10:03:13;33.60;;;19.17;;
81679;SDS011;74989;52.210;5.148;2024-01-11T10:05:40;31.75;;;18.60;;
81679;SDS011;74989;52.210;5.148;2024-01-11T10:08:10;32.47;;;19.13;;
81679;SDS011;74989;52.210;5.148;2024-01-11T10:10:37;27.93;;;18.77;;
81679;SDS011;74989;52.210;5.148;2024-01-11T10:13:05;30.00;;;18.55;;
81679;SDS011;74989;52.210;5.148;2024-01-11T10:15:31;35.35;;;21.42;;
81679;SDS011;74989;52.210;5.148;2024-01-11T10:17:58;32.30;;;20.42;;
81679;SDS011;74989;52.210;5.148;2024-01-11T10:20:25;28.08;;;17.02;;
81679;SDS011;74989;52.210;5.148;2024-01-11T10:22:55;30.07;;;20.40;;
81679;SDS011;74989;52.210;5.148;2024-01-11T10:25:24;33.20;;;18.65;;
81679;SDS011;74989;52.210;5.148;2024-01-11T10:27:51;32.00;;;18.80;;
81679;SDS011;74989;52.210;5.148;2024-01-11T10:30:18;30.02;;;19.90;;
81679;SDS011;74989;52.210;5.148;2024-01-11T10:32:47;32.30;;;19.67;;
81679;SDS011;74989;52.210;5.148;2024-01-11T10:35:14;30.40;;;19.47;;
81679;SDS011;74989;52.210;5.148;2024-01-11T10:37:43;36.85;;;19.88;;
81679;SDS011;74989;52.210;5.148;2024-01-11T10:40:11;28.30;;;18.13;;
81679;SDS011;74989;52.210;5.148;2024-01-11T10:42:41;26.83;;;19.13;;
81679;SDS011;74989;52.210;5.148;2024-01-11T10:45:10;33.35;;;19.38;;
81679;SDS011;74989;52.210;5.148;2024-01-11T10:47:42;29.37;;;17.97;;
81679;SDS011;74989;52.210;5.148;2024-01-11T10:50:16;30.58;;;18.75;;
81679;SDS011;74989;52.210;5.148;2024-01-11T10:52:48;29.23;;;17.20;;
81679;SDS011;74989;52.210;5.148;2024-01-11T10:55:23;35.67;;;21.05;;
81679;SDS011;74989;52.210;5.148;2024-01-11T10:57:53;36.83;;;21.45;;
81679;SDS011;74989;52.210;5.148;2024-01-11T11:00:23;27.40;;;17.70;;
81679;SDS011;74989;52.210;5.148;2024-01-11T11:02:50;29.20;;;17.73;;
81679;SDS011;74989;52.210;5.148;2024-01-11T11:05:18;28.58;;;18.45;;
81679;SDS011;74989;52.210;5.148;2024-01-11T11:07:47;28.75;;;17.77;;
81679;SDS011;74989;52.210;5.148;2024-01-11T11:10:15;29.45;;;17.67;;
81679;SDS011;74989;52.210;5.148;2024-01-11T11:12:44;28.30;;;16.63;;
81679;SDS011;74989;52.210;5.148;2024-01-11T11:15:13;29.42;;;18.15;;
81679;SDS011;74989;52.210;5.148;2024-01-11T11:17:40;28.42;;;17.20;;
81679;SDS011;74989;52.210;5.148;2024-01-11T11:20:09;30.80;;;19.98;;
81679;SDS011;74989;52.210;5.148;2024-01-11T11:22:39;24.98;;;16.90;;
81679;SDS011;74989;52.210;5.148;2024-01-11T11:25:08;36.80;;;19.90;;
81679;SDS011;74989;52.210;5.148;2024-01-11T11:27:35;26.80;;;18.23;;
81679;SDS011;74989;52.210;5.148;2024-01-11T11:30:02;26.98;;;18.52;;
81679;SDS011;74989;52.210;5.148;2024-01-11T11:32:38;27.45;;;19.05;;
81679;SDS011;74989;52.210;5.148;2024-01-11T11:35:09;30.73;;;17.05;;
81679;SDS011;74989;52.210;5.148;2024-01-11T11:37:36;26.20;;;17.03;;
81679;SDS011;74989;52.210;5.148;2024-01-11T11:40:04;25.95;;;16.15;;
81679;SDS011;74989;52.210;5.148;2024-01-11T11:42:31;28.30;;;18.10;;
81679;SDS011;74989;52.210;5.148;2024-01-11T11:45:00;22.33;;;15.05;;
81679;SDS011;74989;52.210;5.148;2024-01-11T11:47:33;23.55;;;15.20;;
81679;SDS011;74989;52.210;5.148;2024-01-11T11:50:06;27.07;;;16.90;;
81679;SDS011;74989;52.210;5.148;2024-01-11T11:52:35;24.50;;;18.17;;
81679;SDS011;74989;52.210;5.148;2024-01-11T11:55:02;27.40;;;17.70;;
81679;SDS011;74989;52.210;5.148;2024-01-11T11:57:31;29.95;;;16.90;;
81679;SDS011;74989;52.210;5.148;2024-01-11T11:59:58;25.67;;;17.33;;
81679;SDS011;74989;52.210;5.148;2024-01-11T12:02:25;29.27;;;19.00;;
81679;SDS011;74989;52.210;5.148;2024-01-11T12:04:53;29.33;;;19.73;;
81679;SDS011;74989;52.210;5.148;2024-01-11T12:07:22;29.45;;;17.50;;
81679;SDS011;74989;52.210;5.148;2024-01-11T12:09:49;26.33;;;18.25;;
81679;SDS011;74989;52.210;5.148;2024-01-11T12:12:17;28.55;;;18.60;;
81679;SDS011;74989;52.210;5.148;2024-01-11T12:14:46;24.13;;;16.00;;
81679;SDS011;74989;52.210;5.148;2024-01-11T12:17:12;29.50;;;18.17;;
81679;SDS011;74989;52.210;5.148;2024-01-11T12:19:39;27.35;;;18.33;;
81679;SDS011;74989;52.210;5.148;2024-01-11T12:22:06;28.13;;;17.67;;
81679;SDS011;74989;52.210;5.148;2024-01-11T12:24:34;28.92;;;18.55;;
81679;SDS011;74989;52.210;5.148;2024-01-11T12:27:01;25.70;;;16.33;;
81679;SDS011;74989;52.210;5.148;2024-01-11T12:29:28;22.30;;;15.68;;
81679;SDS011;74989;52.210;5.148;2024-01-11T12:31:56;24.48;;;16.98;;
81679;SDS011;74989;52.210;5.148;2024-01-11T12:34:23;26.13;;;17.42;;
81679;SDS011;74989;52.210;5.148;2024-01-11T12:36:51;23.23;;;16.23;;
81679;SDS011;74989;52.210;5.148;2024-01-11T12:39:19;26.97;;;17.50;;
81679;SDS011;74989;52.210;5.148;2024-01-11T12:41:48;26.13;;;16.92;;
81679;SDS011;74989;52.210;5.148;2024-01-11T12:44:17;26.05;;;17.98;;
81679;SDS011;74989;52.210;5.148;2024-01-11T12:46:44;27.65;;;18.10;;
81679;SDS011;74989;52.210;5.148;2024-01-11T12:49:11;26.83;;;18.08;;
81679;SDS011;74989;52.210;5.148;2024-01-11T12:51:37;24.17;;;16.47;;
81679;SDS011;74989;52.210;5.148;2024-01-11T12:54:05;25.63;;;17.38;;
81679;SDS011;74989;52.210;5.148;2024-01-11T12:56:40;27.08;;;16.58;;
81679;SDS011;74989;52.210;5.148;2024-01-11T12:59:08;36.55;;;17.13;;
81679;SDS011;74989;52.210;5.148;2024-01-11T13:01:36;32.15;;;19.02;;
81679;SDS011;74989;52.210;5.148;2024-01-11T13:04:03;24.00;;;16.43;;
81679;SDS011;74989;52.210;5.148;2024-01-11T13:06:30;25.70;;;18.92;;
81679;SDS011;74989;52.210;5.148;2024-01-11T13:08:57;27.85;;;19.70;;
81679;SDS011;74989;52.210;5.148;2024-01-11T13:11:24;30.05;;;17.17;;
81679;SDS011;74989;52.210;5.148;2024-01-11T13:13:51;26.25;;;17.50;;
81679;SDS011;74989;52.210;5.148;2024-01-11T13:16:19;27.10;;;18.57;;
81679;SDS011;74989;52.210;5.148;2024-01-11T13:18:47;23.85;;;16.83;;
81679;SDS011;74989;52.210;5.148;2024-01-11T13:21:13;25.75;;;16.90;;
81679;SDS011;74989;52.210;5.148;2024-01-11T13:23:40;27.40;;;18.10;;
81679;SDS011;74989;52.210;5.148;2024-01-11T13:26:07;23.27;;;16.83;;
81679;SDS011;74989;52.210;5.148;2024-01-11T13:28:34;21.37;;;15.57;;
81679;SDS011;74989;52.210;5.148;2024-01-11T13:31:01;25.52;;;17.42;;
81679;SDS011;74989;52.210;5.148;2024-01-11T13:33:29;23.08;;;16.52;;
81679;SDS011;74989;52.210;5.148;2024-01-11T13:35:56;26.10;;;17.55;;
81679;SDS011;74989;52.210;5.148;2024-01-11T13:38:23;26.83;;;18.15;;
81679;SDS011;74989;52.210;5.148;2024-01-11T13:40:49;28.97;;;19.43;;
81679;SDS011;74989;52.210;5.148;2024-01-11T13:43:16;24.08;;;16.50;;
81679;SDS011;74989;52.210;5.148;2024-01-11T13:45:43;28.70;;;17.42;;
81679;SDS011;74989;52.210;5.148;2024-01-11T13:48:10;24.35;;;16.83;;
81679;SDS011;74989;52.210;5.148;2024-01-11T13:50:38;20.00;;;13.40;;
81679;SDS011;74989;52.210;5.148;2024-01-11T13:53:05;25.70;;;16.93;;
81679;SDS011;74989;52.210;5.148;2024-01-11T13:55:32;27.40;;;18.98;;
81679;SDS011;74989;52.210;5.148;2024-01-11T13:58:03;29.08;;;19.27;;
81679;SDS011;74989;52.210;5.148;2024-01-11T14:00:30;25.95;;;17.38;;
81679;SDS011;74989;52.210;5.148;2024-01-11T14:02:56;23.52;;;15.82;;
81679;SDS011;74989;52.210;5.148;2024-01-11T14:05:41;22.63;;;15.37;;
81679;SDS011;74989;52.210;5.148;2024-01-11T14:08:20;20.70;;;15.07;;
81679;SDS011;74989;52.210;5.148;2024-01-11T14:14:35;19.42;;;13.50;;
81679;SDS011;74989;52.210;5.148;2024-01-11T14:17:01;19.35;;;13.15;;
81679;SDS011;74989;52.210;5.148;2024-01-11T14:19:28;19.50;;;15.13;;
81679;SDS011;74989;52.210;5.148;2024-01-11T14:25:12;23.23;;;15.15;;
81679;SDS011;74989;52.210;5.148;2024-01-11T14:27:39;25.45;;;15.50;;
81679;SDS011;74989;52.210;5.148;2024-01-11T14:30:06;23.58;;;14.45;;